sensor_id;sensor_type;location;lat;lon;timestamp;pressure;altitude;pressure_sealevel;temperature;humidity
37304;BME280;23188;51.188;16.374;2023-04-06T00:02:03;100766.19;;;0.05;95.46
37304;BME280;23188;51.188;16.374;2023-04-06T00:06:06;100763.16;;;0.07;95.13
37304;BME280;23188;51.188;16.374;2023-04-06T00:10:10;100762.30;;;0.07;95.15
37304;BME280;23188;51.188;16.374;2023-04-06T00:14:13;100763.64;;;-0.03;95.92
37304;BME280;23188;51.188;16.374;2023-04-06T00:18:16;100757.27;;;-0.12;96.50
37304;BME280;23188;51.188;16.374;2023-04-06T00:22:19;100756.59;;;-0.12;97.29
37304;BME280;23188;51.188;16.374;2023-04-06T00:26:23;100754.16;;;-0.12;97.23
37304;BME280;23188;51.188;16.374;2023-04-06T00:30:27;100753.55;;;-0.10;96.48
37304;BME280;23188;51.188;16.374;2023-04-06T00:34:30;100754.39;;;-0.08;97.14
37304;BME280;23188;51.188;16.374;2023-04-06T00:38:33;100752.70;;;-0.04;96.60
37304;BME280;23188;51.188;16.374;2023-04-06T00:42:38;100751.86;;;0.01;95.47
37304;BME280;23188;51.188;16.374;2023-04-06T00:46:41;100746.88;;;0.10;94.46
37304;BME280;23188;51.188;16.374;2023-04-06T00:50:45;100748.32;;;0.19;93.22
37304;BME280;23188;51.188;16.374;2023-04-06T00:54:49;100747.56;;;0.27;91.92
37304;BME280;23188;51.188;16.374;2023-04-06T00:58:53;100745.64;;;0.33;91.39
37304;BME280;23188;51.188;16.374;2023-04-06T01:02:59;100748.23;;;0.33;91.63
37304;BME280;23188;51.188;16.374;2023-04-06T01:07:03;100741.79;;;0.33;92.16
37304;BME280;23188;51.188;16.374;2023-04-06T01:11:07;100736.28;;;0.31;92.66
37304;BME280;23188;51.188;16.374;2023-04-06T01:15:10;100738.05;;;0.13;94.38
37304;BME280;23188;51.188;16.374;2023-04-06T01:19:14;100740.86;;;-0.11;96.69
37304;BME280;23188;51.188;16.374;2023-04-06T01:23:17;100738.92;;;-0.28;98.35
37304;BME280;23188;51.188;16.374;2023-04-06T01:27:21;100735.27;;;-0.46;99.38
37304;BME280;23188;51.188;16.374;2023-04-06T01:31:24;100733.91;;;-0.54;99.95
37304;BME280;23188;51.188;16.374;2023-04-06T01:35:28;100738.34;;;-0.56;100.00
37304;BME280;23188;51.188;16.374;2023-04-06T01:39:31;100739.09;;;-0.59;100.00
37304;BME280;23188;51.188;16.374;2023-04-06T01:43:35;100734.70;;;-0.64;100.00
37304;BME280;23188;51.188;16.374;2023-04-06T01:47:38;100733.92;;;-0.61;100.00
37304;BME280;23188;51.188;16.374;2023-04-06T01:51:47;100736.82;;;-0.65;99.56
37304;BME280;23188;51.188;16.374;2023-04-06T01:55:50;100738.27;;;-0.67;98.70
37304;BME280;23188;51.188;16.374;2023-04-06T01:59:54;100740.39;;;-0.67;98.28
37304;BME280;23188;51.188;16.374;2023-04-06T02:03:57;100737.23;;;-0.67;97.99
37304;BME280;23188;51.188;16.374;2023-04-06T02:08:00;100740.11;;;-0.64;97.50
37304;BME280;23188;51.188;16.374;2023-04-06T02:12:04;100742.89;;;-0.51;97.14
37304;BME280;23188;51.188;16.374;2023-04-06T02:16:16;100750.21;;;-0.38;96.19
37304;BME280;23188;51.188;16.374;2023-04-06T02:20:19;100751.35;;;-0.30;95.12
37304;BME280;23188;51.188;16.374;2023-04-06T02:24:22;100750.45;;;-0.23;94.66
37304;BME280;23188;51.188;16.374;2023-04-06T02:28:26;100750.00;;;-0.13;94.18
37304;BME280;23188;51.188;16.374;2023-04-06T02:32:29;100748.82;;;-0.03;93.60
37304;BME280;23188;51.188;16.374;2023-04-06T02:36:32;100747.86;;;-0.06;92.97
37304;BME280;23188;51.188;16.374;2023-04-06T02:40:36;100749.61;;;-0.12;91.82
37304;BME280;23188;51.188;16.374;2023-04-06T02:44:39;100755.53;;;-0.11;91.23
37304;BME280;23188;51.188;16.374;2023-04-06T02:48:42;100761.38;;;-0.09;91.30
37304;BME280;23188;51.188;16.374;2023-04-06T02:52:45;100762.95;;;-0.09;91.66
37304;BME280;23188;51.188;16.374;2023-04-06T02:56:48;100762.34;;;-0.06;92.19
37304;BME280;23188;51.188;16.374;2023-04-06T03:00:52;100761.65;;;-0.12;91.68
37304;BME280;23188;51.188;16.374;2023-04-06T03:04:55;100762.54;;;-0.25;92.79
37304;BME280;23188;51.188;16.374;2023-04-06T03:08:58;100768.27;;;-0.31;92.62
37304;BME280;23188;51.188;16.374;2023-04-06T03:13:02;100768.30;;;-0.31;92.13
37304;BME280;23188;51.188;16.374;2023-04-06T03:17:05;100762.13;;;-0.29;91.44
37304;BME280;23188;51.188;16.374;2023-04-06T03:21:08;100769.42;;;-0.34;90.31
37304;BME280;23188;51.188;16.374;2023-04-06T03:25:11;100767.80;;;-0.38;89.97
37304;BME280;23188;51.188;16.374;2023-04-06T03:29:15;100765.27;;;-0.41;89.16
37304;BME280;23188;51.188;16.374;2023-04-06T03:33:19;100768.82;;;-0.43;89.99
37304;BME280;23188;51.188;16.374;2023-04-06T03:37:22;100771.35;;;-0.53;92.72
37304;BME280;23188;51.188;16.374;2023-04-06T03:41:26;100772.66;;;-0.63;92.06
37304;BME280;23188;51.188;16.374;2023-04-06T03:45:29;100781.98;;;-0.66;92.79
37304;BME280;23188;51.188;16.374;2023-04-06T03:49:33;100785.19;;;-0.69;93.65
37304;BME280;23188;51.188;16.374;2023-04-06T03:53:36;100785.27;;;-0.78;95.56
37304;BME280;23188;51.188;16.374;2023-04-06T03:57:40;100790.96;;;-0.83;96.20
37304;BME280;23188;51.188;16.374;2023-04-06T04:01:43;100794.34;;;-0.79;95.58
37304;BME280;23188;51.188;16.374;2023-04-06T04:05:46;100793.98;;;-0.78;93.70
37304;BME280;23188;51.188;16.374;2023-04-06T04:09:50;100799.69;;;-0.77;91.86
37304;BME280;23188;51.188;16.374;2023-04-06T04:13:53;100797.39;;;-0.75;91.50
37304;BME280;23188;51.188;16.374;2023-04-06T04:17:56;100798.88;;;-0.73;91.10
37304;BME280;23188;51.188;16.374;2023-04-06T04:22:02;100803.91;;;-0.72;90.82
37304;BME280;23188;51.188;16.374;2023-04-06T04:26:08;100800.66;;;-0.67;90.43
37304;BME280;23188;51.188;16.374;2023-04-06T04:30:13;100805.79;;;-0.70;90.13
37304;BME280;23188;51.188;16.374;2023-04-06T04:34:16;100804.02;;;-0.77;90.53
37304;BME280;23188;51.188;16.374;2023-04-06T04:38:20;100803.55;;;-0.85;91.06
37304;BME280;23188;51.188;16.374;2023-04-06T04:42:24;100802.91;;;-0.87;91.93
37304;BME280;23188;51.188;16.374;2023-04-06T04:46:27;100803.03;;;-0.78;92.40
37304;BME280;23188;51.188;16.374;2023-04-06T04:50:31;100806.08;;;-0.30;93.64
37304;BME280;23188;51.188;16.374;2023-04-06T04:54:34;100808.44;;;0.21;92.47
37304;BME280;23188;51.188;16.374;2023-04-06T04:58:38;100808.68;;;0.53;89.56
37304;BME280;23188;51.188;16.374;2023-04-06T05:02:41;100800.10;;;0.93;95.42
37304;BME280;23188;51.188;16.374;2023-04-06T05:06:45;100804.47;;;1.24;90.27
37304;BME280;23188;51.188;16.374;2023-04-06T05:10:49;100799.54;;;1.50;86.75
37304;BME280;23188;51.188;16.374;2023-04-06T05:14:53;100801.05;;;1.67;85.11
37304;BME280;23188;51.188;16.374;2023-04-06T05:18:57;100803.42;;;1.83;85.02
37304;BME280;23188;51.188;16.374;2023-04-06T05:23:00;100806.27;;;1.96;84.48
37304;BME280;23188;51.188;16.374;2023-04-06T05:27:04;100808.34;;;2.01;85.37
37304;BME280;23188;51.188;16.374;2023-04-06T05:31:27;100814.10;;;2.30;87.70
37304;BME280;23188;51.188;16.374;2023-04-06T05:35:30;100814.20;;;2.63;86.12
37304;BME280;23188;51.188;16.374;2023-04-06T05:39:33;100814.18;;;3.35;91.28
37304;BME280;23188;51.188;16.374;2023-04-06T05:43:37;100819.64;;;4.07;87.76
37304;BME280;23188;51.188;16.374;2023-04-06T05:47:40;100821.78;;;4.66;84.56
37304;BME280;23188;51.188;16.374;2023-04-06T05:51:43;100812.92;;;5.22;81.18
37304;BME280;23188;51.188;16.374;2023-04-06T05:55:47;100812.48;;;5.41;77.19
37304;BME280;23188;51.188;16.374;2023-04-06T05:59:54;100811.76;;;5.38;76.43
37304;BME280;23188;51.188;16.374;2023-04-06T06:03:58;100809.82;;;5.27;74.16
37304;BME280;23188;51.188;16.374;2023-04-06T06:08:03;100806.40;;;5.15;72.27
37304;BME280;23188;51.188;16.374;2023-04-06T06:12:07;100808.59;;;5.20;72.44
37304;BME280;23188;51.188;16.374;2023-04-06T06:16:10;100808.27;;;5.23;71.98
37304;BME280;23188;51.188;16.374;2023-04-06T06:20:13;100812.23;;;5.35;73.45
37304;BME280;23188;51.188;16.374;2023-04-06T06:24:18;100814.70;;;5.49;73.08
37304;BME280;23188;51.188;16.374;2023-04-06T06:28:21;100818.02;;;5.77;71.43
37304;BME280;23188;51.188;16.374;2023-04-06T06:32:24;100813.10;;;6.06;69.09
37304;BME280;23188;51.188;16.374;2023-04-06T06:36:28;100813.23;;;6.36;68.64
37304;BME280;23188;51.188;16.374;2023-04-06T06:40:33;100815.92;;;6.39;66.46
37304;BME280;23188;51.188;16.374;2023-04-06T06:44:38;100821.31;;;6.37;65.73
37304;BME280;23188;51.188;16.374;2023-04-06T06:48:43;100823.98;;;6.43;65.00
37304;BME280;23188;51.188;16.374;2023-04-06T06:52:47;100828.23;;;6.68;64.18
37304;BME280;23188;51.188;16.374;2023-04-06T06:56:50;100821.98;;;6.73;63.89
37304;BME280;23188;51.188;16.374;2023-04-06T07:00:58;100822.11;;;6.61;64.11
37304;BME280;23188;51.188;16.374;2023-04-06T07:05:02;100824.32;;;6.59;62.74
37304;BME280;23188;51.188;16.374;2023-04-06T07:09:18;100823.77;;;6.69;61.60
37304;BME280;23188;51.188;16.374;2023-04-06T07:13:21;100822.83;;;6.67;62.69
37304;BME280;23188;51.188;16.374;2023-04-06T07:17:26;100820.83;;;6.77;62.41
37304;BME280;23188;51.188;16.374;2023-04-06T07:21:29;100823.20;;;6.85;61.91
37304;BME280;23188;51.188;16.374;2023-04-06T07:25:33;100826.47;;;6.80;62.58
37304;BME280;23188;51.188;16.374;2023-04-06T07:29:36;100826.31;;;6.64;63.28
37304;BME280;23188;51.188;16.374;2023-04-06T07:33:40;100829.34;;;6.70;63.33
37304;BME280;23188;51.188;16.374;2023-04-06T07:37:43;100821.47;;;6.82;63.48
37304;BME280;23188;51.188;16.374;2023-04-06T07:41:46;100821.13;;;6.53;64.22
37304;BME280;23188;51.188;16.374;2023-04-06T07:45:50;100825.02;;;6.24;65.41
37304;BME280;23188;51.188;16.374;2023-04-06T07:49:54;100826.40;;;6.18;66.98
37304;BME280;23188;51.188;16.374;2023-04-06T07:53:58;100827.90;;;6.29;67.36
37304;BME280;23188;51.188;16.374;2023-04-06T07:58:02;100823.63;;;6.49;66.70
37304;BME280;23188;51.188;16.374;2023-04-06T08:02:06;100819.63;;;6.39;67.78
37304;BME280;23188;51.188;16.374;2023-04-06T08:06:10;100816.86;;;6.32;68.77
37304;BME280;23188;51.188;16.374;2023-04-06T08:10:13;100813.98;;;6.36;69.63
37304;BME280;23188;51.188;16.374;2023-04-06T08:14:16;100811.84;;;6.65;70.50
37304;BME280;23188;51.188;16.374;2023-04-06T08:18:20;100813.34;;;6.79;69.76
37304;BME280;23188;51.188;16.374;2023-04-06T08:22:23;100815.02;;;6.77;68.91
37304;BME280;23188;51.188;16.374;2023-04-06T08:26:26;100813.86;;;6.94;68.46
37304;BME280;23188;51.188;16.374;2023-04-06T08:30:30;100816.35;;;7.00;69.20
37304;BME280;23188;51.188;16.374;2023-04-06T08:34:33;100818.83;;;7.03;69.18
37304;BME280;23188;51.188;16.374;2023-04-06T08:38:36;100818.02;;;7.32;68.70
37304;BME280;23188;51.188;16.374;2023-04-06T08:42:45;100817.81;;;7.65;67.47
37304;BME280;23188;51.188;16.374;2023-04-06T08:46:52;100813.66;;;7.95;67.02
37304;BME280;23188;51.188;16.374;2023-04-06T08:50:55;100810.40;;;8.28;65.98
37304;BME280;23188;51.188;16.374;2023-04-06T08:54:59;100809.42;;;8.58;64.26
37304;BME280;23188;51.188;16.374;2023-04-06T08:59:02;100809.82;;;8.76;61.85
37304;BME280;23188;51.188;16.374;2023-04-06T09:03:07;100800.30;;;8.92;61.21
37304;BME280;23188;51.188;16.374;2023-04-06T09:07:11;100794.91;;;9.04;61.44
37304;BME280;23188;51.188;16.374;2023-04-06T09:11:16;100792.08;;;9.25;60.60
37304;BME280;23188;51.188;16.374;2023-04-06T09:15:20;100791.50;;;9.44;59.70
37304;BME280;23188;51.188;16.374;2023-04-06T09:19:26;100789.14;;;9.63;59.16
37304;BME280;23188;51.188;16.374;2023-04-06T09:23:30;100795.85;;;9.66;57.59
37304;BME280;23188;51.188;16.374;2023-04-06T09:27:36;100789.67;;;9.73;56.96
37304;BME280;23188;51.188;16.374;2023-04-06T09:31:40;100787.15;;;9.84;57.25
37304;BME280;23188;51.188;16.374;2023-04-06T09:35:49;100788.23;;;9.76;53.77
37304;BME280;23188;51.188;16.374;2023-04-06T09:40:07;100784.42;;;9.82;56.59
37304;BME280;23188;51.188;16.374;2023-04-06T09:44:12;100786.32;;;9.91;56.21
37304;BME280;23188;51.188;16.374;2023-04-06T09:48:16;100783.88;;;9.93;54.57
37304;BME280;23188;51.188;16.374;2023-04-06T09:52:22;100782.77;;;9.83;51.71
37304;BME280;23188;51.188;16.374;2023-04-06T09:56:31;100777.80;;;9.83;53.76
37304;BME280;23188;51.188;16.374;2023-04-06T10:00:59;100778.15;;;9.83;51.78
37304;BME280;23188;51.188;16.374;2023-04-06T10:05:09;100780.48;;;9.88;52.01
37304;BME280;23188;51.188;16.374;2023-04-06T10:09:16;100777.77;;;9.99;51.02
37304;BME280;23188;51.188;16.374;2023-04-06T10:13:19;100770.75;;;10.13;49.59
37304;BME280;23188;51.188;16.374;2023-04-06T10:17:22;100776.73;;;10.29;48.33
37304;BME280;23188;51.188;16.374;2023-04-06T10:21:30;100772.50;;;10.28;47.16
37304;BME280;23188;51.188;16.374;2023-04-06T10:25:35;100772.48;;;10.24;50.03
37304;BME280;23188;51.188;16.374;2023-04-06T10:29:44;100773.55;;;10.01;50.26
37304;BME280;23188;51.188;16.374;2023-04-06T10:33:58;100760.95;;;9.81;50.95
37304;BME280;23188;51.188;16.374;2023-04-06T10:38:02;100762.21;;;9.88;50.61
37304;BME280;23188;51.188;16.374;2023-04-06T10:42:06;100759.81;;;10.09;50.45
37304;BME280;23188;51.188;16.374;2023-04-06T10:46:10;100760.37;;;10.02;50.29
37304;BME280;23188;51.188;16.374;2023-04-06T10:50:15;100755.20;;;10.00;50.75
37304;BME280;23188;51.188;16.374;2023-04-06T10:54:24;100757.24;;;10.04;51.31
37304;BME280;23188;51.188;16.374;2023-04-06T10:58:27;100753.48;;;9.72;52.35
37304;BME280;23188;51.188;16.374;2023-04-06T11:02:30;100749.11;;;9.22;52.98
37304;BME280;23188;51.188;16.374;2023-04-06T11:06:34;100746.91;;;8.97;52.43
37304;BME280;23188;51.188;16.374;2023-04-06T11:10:37;100740.63;;;8.77;50.50
37304;BME280;23188;51.188;16.374;2023-04-06T11:14:40;100734.87;;;8.86;51.18
37304;BME280;23188;51.188;16.374;2023-04-06T11:18:56;100732.83;;;9.11;51.67
37304;BME280;23188;51.188;16.374;2023-04-06T11:22:59;100735.64;;;9.43;52.19
37304;BME280;23188;51.188;16.374;2023-04-06T11:27:03;100737.14;;;9.62;51.50
37304;BME280;23188;51.188;16.374;2023-04-06T11:31:09;100731.70;;;9.59;51.23
37304;BME280;23188;51.188;16.374;2023-04-06T11:35:22;100726.20;;;9.54;49.75
37304;BME280;23188;51.188;16.374;2023-04-06T11:39:28;100718.03;;;9.57;50.71
37304;BME280;23188;51.188;16.374;2023-04-06T11:43:31;100717.36;;;9.74;49.43
37304;BME280;23188;51.188;16.374;2023-04-06T11:47:36;100708.07;;;9.95;50.28
37304;BME280;23188;51.188;16.374;2023-04-06T11:51:40;100703.30;;;10.05;49.01
37304;BME280;23188;51.188;16.374;2023-04-06T11:55:43;100703.11;;;9.80;47.04
37304;BME280;23188;51.188;16.374;2023-04-06T11:59:49;100695.98;;;9.61;48.63
37304;BME280;23188;51.188;16.374;2023-04-06T12:03:53;100689.99;;;9.53;48.21
37304;BME280;23188;51.188;16.374;2023-04-06T12:07:56;100688.48;;;9.79;48.92
37304;BME280;23188;51.188;16.374;2023-04-06T12:12:04;100690.44;;;10.01;47.40
37304;BME280;23188;51.188;16.374;2023-04-06T12:16:08;100686.70;;;10.19;46.46
37304;BME280;23188;51.188;16.374;2023-04-06T12:20:11;100684.59;;;10.28;46.68
37304;BME280;23188;51.188;16.374;2023-04-06T12:24:27;100682.23;;;10.29;47.19
37304;BME280;23188;51.188;16.374;2023-04-06T12:28:31;100685.88;;;9.86;49.85
37304;BME280;23188;51.188;16.374;2023-04-06T12:32:34;100682.81;;;9.54;49.32
37304;BME280;23188;51.188;16.374;2023-04-06T12:36:38;100674.48;;;9.31;50.11
37304;BME280;23188;51.188;16.374;2023-04-06T12:40:41;100667.48;;;9.33;50.89
37304;BME280;23188;51.188;16.374;2023-04-06T12:44:44;100669.02;;;9.56;49.27
37304;BME280;23188;51.188;16.374;2023-04-06T12:48:48;100667.27;;;9.81;48.66
37304;BME280;23188;51.188;16.374;2023-04-06T12:52:51;100663.35;;;10.01;46.94
37304;BME280;23188;51.188;16.374;2023-04-06T12:56:54;100657.64;;;9.99;46.96
37304;BME280;23188;51.188;16.374;2023-04-06T13:00:59;100653.25;;;9.91;47.92
37304;BME280;23188;51.188;16.374;2023-04-06T13:05:05;100648.27;;;10.04;47.10
37304;BME280;23188;51.188;16.374;2023-04-06T13:09:08;100645.19;;;9.97;47.69
37304;BME280;23188;51.188;16.374;2023-04-06T13:13:11;100649.36;;;10.15;47.63
37304;BME280;23188;51.188;16.374;2023-04-06T13:17:14;100635.85;;;10.28;47.54
37304;BME280;23188;51.188;16.374;2023-04-06T13:21:19;100631.67;;;10.39;46.86
37304;BME280;23188;51.188;16.374;2023-04-06T13:25:23;100629.88;;;10.49;47.30
37304;BME280;23188;51.188;16.374;2023-04-06T13:29:27;100624.49;;;10.38;46.84
37304;BME280;23188;51.188;16.374;2023-04-06T13:33:30;100623.46;;;10.30;46.90
37304;BME280;23188;51.188;16.374;2023-04-06T13:37:34;100617.09;;;10.23;48.42
37304;BME280;23188;51.188;16.374;2023-04-06T13:41:37;100616.73;;;10.21;47.43
37304;BME280;23188;51.188;16.374;2023-04-06T13:45:40;100602.60;;;10.22;46.55
37304;BME280;23188;51.188;16.374;2023-04-06T13:49:43;100599.28;;;10.14;48.51
37304;BME280;23188;51.188;16.374;2023-04-06T13:53:46;100596.89;;;10.30;48.36
37304;BME280;23188;51.188;16.374;2023-04-06T13:57:49;100594.61;;;10.41;48.32
37304;BME280;23188;51.188;16.374;2023-04-06T14:01:52;100601.45;;;10.43;47.06
37304;BME280;23188;51.188;16.374;2023-04-06T14:05:55;100598.80;;;10.45;45.84
37304;BME280;23188;51.188;16.374;2023-04-06T14:10:06;100596.61;;;10.41;47.30
37304;BME280;23188;51.188;16.374;2023-04-06T14:14:16;100596.70;;;10.30;46.97
37304;BME280;23188;51.188;16.374;2023-04-06T14:18:19;100591.49;;;10.40;46.54
37304;BME280;23188;51.188;16.374;2023-04-06T14:22:23;100591.89;;;10.40;46.58
37304;BME280;23188;51.188;16.374;2023-04-06T14:26:27;100585.77;;;10.46;46.52
37304;BME280;23188;51.188;16.374;2023-04-06T14:30:30;100588.55;;;10.44;47.60
37304;BME280;23188;51.188;16.374;2023-04-06T14:34:37;100581.71;;;10.48;46.64
37304;BME280;23188;51.188;16.374;2023-04-06T14:38:40;100581.38;;;10.55;47.24
37304;BME280;23188;51.188;16.374;2023-04-06T14:42:43;100584.18;;;10.67;48.07
37304;BME280;23188;51.188;16.374;2023-04-06T14:46:45;100580.90;;;10.75;46.45
37304;BME280;23188;51.188;16.374;2023-04-06T14:50:52;100579.22;;;10.58;48.07
37304;BME280;23188;51.188;16.374;2023-04-06T14:54:56;100578.20;;;10.43;48.24
37304;BME280;23188;51.188;16.374;2023-04-06T14:58:59;100575.84;;;10.31;48.36
37304;BME280;23188;51.188;16.374;2023-04-06T15:03:04;100573.52;;;10.22;48.49
37304;BME280;23188;51.188;16.374;2023-04-06T15:07:07;100572.56;;;10.23;47.43
37304;BME280;23188;51.188;16.374;2023-04-06T15:11:11;100573.84;;;10.32;47.23
37304;BME280;23188;51.188;16.374;2023-04-06T15:15:14;100569.02;;;10.35;46.91
37304;BME280;23188;51.188;16.374;2023-04-06T15:19:17;100567.05;;;10.37;48.37
37304;BME280;23188;51.188;16.374;2023-04-06T15:23:20;100562.63;;;10.40;48.16
37304;BME280;23188;51.188;16.374;2023-04-06T15:27:23;100558.90;;;10.40;47.51
37304;BME280;23188;51.188;16.374;2023-04-06T15:31:27;100554.44;;;10.38;47.63
37304;BME280;23188;51.188;16.374;2023-04-06T15:35:40;100561.73;;;10.31;48.58
37304;BME280;23188;51.188;16.374;2023-04-06T15:39:45;100564.58;;;10.14;47.92
37304;BME280;23188;51.188;16.374;2023-04-06T15:43:48;100563.88;;;9.92;48.26
37304;BME280;23188;51.188;16.374;2023-04-06T15:47:53;100560.11;;;9.79;49.32
37304;BME280;23188;51.188;16.374;2023-04-06T15:51:56;100568.77;;;9.69;48.80
37304;BME280;23188;51.188;16.374;2023-04-06T15:56:00;100561.77;;;9.63;48.17
37304;BME280;23188;51.188;16.374;2023-04-06T16:00:04;100562.48;;;9.58;48.53
37304;BME280;23188;51.188;16.374;2023-04-06T16:04:07;100561.98;;;9.57;49.15
37304;BME280;23188;51.188;16.374;2023-04-06T16:08:15;100561.56;;;9.56;49.33
37304;BME280;23188;51.188;16.374;2023-04-06T16:12:20;100561.10;;;9.48;48.42
37304;BME280;23188;51.188;16.374;2023-04-06T16:16:23;100561.50;;;9.40;49.21
37304;BME280;23188;51.188;16.374;2023-04-06T16:20:26;100557.77;;;9.27;49.47
37304;BME280;23188;51.188;16.374;2023-04-06T16:24:29;100557.84;;;9.19;50.98
37304;BME280;23188;51.188;16.374;2023-04-06T16:28:32;100558.07;;;9.11;51.52
37304;BME280;23188;51.188;16.374;2023-04-06T16:32:36;100556.66;;;9.06;53.10
37304;BME280;23188;51.188;16.374;2023-04-06T16:36:41;100556.67;;;8.95;54.06
37304;BME280;23188;51.188;16.374;2023-04-06T16:41:00;100555.15;;;8.82;53.55
37304;BME280;23188;51.188;16.374;2023-04-06T16:45:08;100551.66;;;8.68;53.98
37304;BME280;23188;51.188;16.374;2023-04-06T16:49:31;100551.67;;;8.60;55.61
37304;BME280;23188;51.188;16.374;2023-04-06T16:53:50;100555.08;;;8.49;57.21
37304;BME280;23188;51.188;16.374;2023-04-06T16:57:55;100552.15;;;8.40;57.36
37304;BME280;23188;51.188;16.374;2023-04-06T17:02:09;100550.45;;;8.34;57.62
37304;BME280;23188;51.188;16.374;2023-04-06T17:06:13;100548.54;;;8.25;58.03
37304;BME280;23188;51.188;16.374;2023-04-06T17:10:19;100544.56;;;8.21;57.92
37304;BME280;23188;51.188;16.374;2023-04-06T17:14:38;100546.09;;;8.20;59.03
37304;BME280;23188;51.188;16.374;2023-04-06T17:18:49;100545.12;;;8.16;58.58
37304;BME280;23188;51.188;16.374;2023-04-06T17:23:02;100550.75;;;8.08;59.95
37304;BME280;23188;51.188;16.374;2023-04-06T17:27:09;100556.41;;;7.97;59.64
37304;BME280;23188;51.188;16.374;2023-04-06T17:31:21;100559.44;;;7.86;59.64
37304;BME280;23188;51.188;16.374;2023-04-06T17:35:32;100561.98;;;7.74;60.24
37304;BME280;23188;51.188;16.374;2023-04-06T17:39:53;100563.27;;;7.62;60.29
37304;BME280;23188;51.188;16.374;2023-04-06T17:44:13;100566.77;;;7.49;60.14
37304;BME280;23188;51.188;16.374;2023-04-06T17:48:23;100570.39;;;7.37;60.70
37304;BME280;23188;51.188;16.374;2023-04-06T17:53:02;100575.36;;;7.25;60.45
37304;BME280;23188;51.188;16.374;2023-04-06T17:57:13;100577.59;;;7.15;60.86
37304;BME280;23188;51.188;16.374;2023-04-06T18:01:21;100580.86;;;7.07;60.96
37304;BME280;23188;51.188;16.374;2023-04-06T18:05:33;100582.40;;;6.99;61.22
37304;BME280;23188;51.188;16.374;2023-04-06T18:09:41;100582.14;;;6.92;61.57
37304;BME280;23188;51.188;16.374;2023-04-06T18:13:48;100579.17;;;6.83;61.85
37304;BME280;23188;51.188;16.374;2023-04-06T18:18:06;100579.02;;;6.74;62.02
37304;BME280;23188;51.188;16.374;2023-04-06T18:22:13;100578.61;;;6.66;61.96
37304;BME280;23188;51.188;16.374;2023-04-06T18:26:22;100579.19;;;6.53;62.30
37304;BME280;23188;51.188;16.374;2023-04-06T18:30:27;100579.67;;;6.36;63.61
37304;BME280;23188;51.188;16.374;2023-04-06T18:34:32;100583.24;;;6.17;63.96
37304;BME280;23188;51.188;16.374;2023-04-06T18:38:35;100585.38;;;6.01;65.26
37304;BME280;23188;51.188;16.374;2023-04-06T18:42:40;100582.10;;;5.88;65.31
37304;BME280;23188;51.188;16.374;2023-04-06T18:46:43;100585.24;;;5.76;64.76
37304;BME280;23188;51.188;16.374;2023-04-06T18:50:55;100584.44;;;5.65;65.00
37304;BME280;23188;51.188;16.374;2023-04-06T18:55:05;100588.41;;;5.53;65.85
37304;BME280;23188;51.188;16.374;2023-04-06T18:59:37;100589.69;;;5.40;65.76
37304;BME280;23188;51.188;16.374;2023-04-06T19:03:51;100585.41;;;5.28;66.42
37304;BME280;23188;51.188;16.374;2023-04-06T19:07:55;100582.32;;;5.16;66.20
37304;BME280;23188;51.188;16.374;2023-04-06T19:11:58;100589.54;;;5.06;67.07
37304;BME280;23188;51.188;16.374;2023-04-06T19:16:12;100589.22;;;4.96;68.38
37304;BME280;23188;51.188;16.374;2023-04-06T19:20:32;100590.23;;;4.87;68.59
37304;BME280;23188;51.188;16.374;2023-04-06T19:24:42;100591.23;;;4.78;69.25
37304;BME280;23188;51.188;16.374;2023-04-06T19:28:51;100593.27;;;4.76;70.59
37304;BME280;23188;51.188;16.374;2023-04-06T19:32:56;100590.13;;;4.79;71.35
37304;BME280;23188;51.188;16.374;2023-04-06T19:37:00;100589.97;;;4.85;71.55
37304;BME280;23188;51.188;16.374;2023-04-06T19:41:10;100591.15;;;4.93;72.14
37304;BME280;23188;51.188;16.374;2023-04-06T19:45:20;100587.73;;;4.87;73.25
37304;BME280;23188;51.188;16.374;2023-04-06T19:49:28;100586.02;;;4.77;72.13
37304;BME280;23188;51.188;16.374;2023-04-06T19:53:32;100583.72;;;4.74;72.56
37304;BME280;23188;51.188;16.374;2023-04-06T19:57:40;100584.94;;;4.74;72.34
37304;BME280;23188;51.188;16.374;2023-04-06T20:01:44;100589.98;;;4.78;71.93
37304;BME280;23188;51.188;16.374;2023-04-06T20:05:55;100583.16;;;4.81;73.34
37304;BME280;23188;51.188;16.374;2023-04-06T20:10:00;100584.58;;;4.84;73.85
37304;BME280;23188;51.188;16.374;2023-04-06T20:14:14;100585.16;;;4.93;74.99
37304;BME280;23188;51.188;16.374;2023-04-06T20:18:22;100583.98;;;5.05;74.73
37304;BME280;23188;51.188;16.374;2023-04-06T20:22:36;100586.75;;;5.06;74.98
37304;BME280;23188;51.188;16.374;2023-04-06T20:26:39;100584.30;;;4.96;76.21
37304;BME280;23188;51.188;16.374;2023-04-06T20:30:42;100577.73;;;4.87;77.80
37304;BME280;23188;51.188;16.374;2023-04-06T20:34:46;100578.23;;;4.78;76.41
37304;BME280;23188;51.188;16.374;2023-04-06T20:38:49;100577.21;;;4.74;76.39
37304;BME280;23188;51.188;16.374;2023-04-06T20:42:55;100575.89;;;4.79;77.13
37304;BME280;23188;51.188;16.374;2023-04-06T20:46:59;100572.44;;;4.84;77.73
37304;BME280;23188;51.188;16.374;2023-04-06T20:51:03;100572.02;;;4.85;78.71
37304;BME280;23188;51.188;16.374;2023-04-06T20:55:07;100572.41;;;4.91;79.08
37304;BME280;23188;51.188;16.374;2023-04-06T20:59:10;100569.32;;;4.90;79.11
37304;BME280;23188;51.188;16.374;2023-04-06T21:03:15;100564.39;;;4.83;79.41
37304;BME280;23188;51.188;16.374;2023-04-06T21:07:19;100565.86;;;4.79;79.05
37304;BME280;23188;51.188;16.374;2023-04-06T21:11:22;100558.92;;;4.84;78.26
37304;BME280;23188;51.188;16.374;2023-04-06T21:15:25;100556.95;;;4.94;78.52